Valentino Caprioli

Scout - Como
3 Dez 2028
Sonntag
Verarbeitung

Persönlichkeit

Anpassungsfähigkeit (14) Ehrgeiz (11) Kontroverse (20) Loyalität (3) Druck (11) Professionalität (7) Fairness (15) Temperament (11)

Profil

Trainerstil Demokratisch
Lizenz Nationale B
Entschlossenheit 11
Menschenführung 7
Motivation 5
Disziplin 10
Arbeitszufriedenheit
100%
Ermüdung
0%
Rolle Scout
Gehalt 26.3K p/W
Vertrag 14.03.2029

Leistung

Verhalten Gut
Trainingseffektivität
34%
Spielerentwicklung
25%
Verletzungsprävention
45%
Taktische Umsetzung
30%

Letzte Ereignisse

Nahm an einer Scouting-Besprechung teil jetzt
Empfahl ein Transferziel jetzt
Empfahl ein Transferziel jetzt
Nahm an einer Scouting-Besprechung teil 7T her
Empfahl ein Transferziel 7T her
Empfahl ein Transferziel 7T her
Empfahl ein Transferziel 7T her
Empfahl ein Transferziel 7T her

Aktuell beobachtet

134
Spieler Verein Status Fähigkeit Vertrauen Beobachtet Zuletzt beobachtet Letzte Stimme
Josh King Newcastle United Aktiv 154 / 162 40% 2 20.11.2028 -
Iestyn Jones Swansea City Aktiv 109 / 115 40% 1 20.11.2028 -
Miguel Figueiredo Benfica Aktiv 132 / 131 40% 9 17.11.2028 -
Filip Reshane Stabaek Aktiv 91 / 102 40% 2 17.11.2028 -
Vitaly Bondarev Ural Aktiv 112 / 106 40% 1 14.11.2028 -
Máximo Munarriz San Telmo Aktiv 105 / 110 40% 1 14.11.2028 -
Luka Vušković Tottenham Aktiv 146 / 155 40% 3 12.11.2028 -
Celías Ingenthron Platense Aktiv 120 / 125 40% 2 12.11.2028 -
Martim Cunha Porto Aktiv 125 / 118 40% 5 11.11.2028 -
Jack Shorrock Port Vale Aktiv 119 / 117 40% 1 10.11.2028 -
Louis Page Leicester City Aktiv 136 / 132 40% 1 10.11.2028 -
Riquelme Thompson-Jones Accrington Stanley Aktiv 117 / 119 40% 4 09.11.2028 -
Andrey Ivlev Nizhniy Novgorod Aktiv 102 / 106 40% 3 09.11.2028 -
Davinchi Getafe Aktiv 131 / 123 40% 1 08.11.2028 -
Christos Mouzakitis Hull City Aktiv 151 / 147 40% 7 07.11.2028 -
Germán Barbas Racing Santander Aktiv 125 / 124 40% 1 07.11.2028 -
Felipe Obradovich Ferro Carril Oeste Aktiv 102 / 113 40% 1 21.10.2028 -
Darryl Bakola Sassuolo Aktiv 123 / 134 40% 1 21.10.2028 -
Malte Heyde Esbjerg Aktiv 93 / 121 40% 1 18.10.2028 -
Daniel Banjaqui Benfica Aktiv 131 / 128 40% 2 17.10.2028 -
Moses Sesay Southampton Aktiv 121 / 134 40% 1 17.10.2028 -
Jaydan Kamason Manchester United Aktiv 113 / 122 40% 2 15.10.2028 -
Federico Nardin Willem II Aktiv 100 / 102 40% 1 15.10.2028 -
Chris Rigg West Ham United Aktiv 129 / 143 40% 1 13.10.2028 -
Jofre Torrents Ajax Aktiv 141 / 136 40% 1 13.10.2028 -
Matías Satas Grimsby Town Aktiv 114 / 121 40% 1 11.10.2028 -
Tobías Ramírez River Plate Aktiv 134 / 138 40% 3 09.10.2028 -
Alejandro Almaraz NK Celje Aktiv 133 / 117 40% 1 07.10.2028 -
Giorgio Vezzosi Sassuolo Aktiv 119 / 117 40% 1 07.10.2028 -
Valentín Loza Defensa y Justicia Aktiv 91 / 106 40% 1 04.10.2028 -
Ignacio Ovando Rosario Central Aktiv 114 / 119 40% 1 04.10.2028 -
Giovanni Leoni Lincoln City Aktiv 136 / 152 40% 4 04.09.2028 -
Axel Tape Bayer Leverkusen Aktiv 148 / 138 40% 1 04.09.2028 -
Augusto Bando Ascoli Aktiv 99 / 122 40% 4 14.08.2028 -
Antonio Boccadamo Virtus Entella Aktiv 98 / 115 44% 1 14.08.2028 -
Mauro Carrizo Atlético Tucumán Aktiv 105 / 101 40% 1 07.08.2028 -
Alin Kumer Čelik Genoa Aktiv 106 / 114 40% 1 07.08.2028 -
Olivier Leroux Mouscron Aktiv 109 / 119 40% 3 17.07.2028 -
Cheveyo Tsawa Club Brugge Aktiv 117 / 134 40% 1 17.07.2028 -
Nejc Viher NK Maribor Aktiv 115 / 118 40% 3 30.05.2028 -
Alessio Insignito Spezia Aktiv 113 / 103 40% 2 25.05.2028 -
Callum Olusesi Tottenham Aktiv 128 / 115 40% 1 24.05.2028 -
Ayden Heaven Portsmouth Aktiv 148 / 158 40% 2 23.05.2028 -
Noahkai Banks FC Augsburg Aktiv 131 / 140 40% 2 22.05.2028 -
Jorthy Mokio ADO Den Haag Aktiv 126 / 131 40% 4 20.05.2028 -
Tyler Fletcher Rotherham United Aktiv 121 / 110 40% 1 19.05.2028 -
Bernardo Lima Porto Aktiv 104 / 122 40% 3 17.05.2028 -
Nazareno Roselli Defensa y Justicia Aktiv 105 / 120 40% 2 16.05.2028 -
Andrea Cogoni Cosenza Aktiv 95 / 111 40% 1 16.05.2028 -
Trey Nyoni Rotherham United Aktiv 135 / 143 40% 4 08.05.2028 -
Lautaro Dufur Juventud Aktiv 102 / 105 40% 1 28.04.2028 -
Isaiah Dada-Mascoll Gillingham Aktiv 103 / 103 40% 1 25.04.2028 -
Josh Stephenson Brentford Aktiv 117 / 112 40% 1 25.04.2028 -
Vasilije Novičić IMT Aktiv 106 / 111 40% 1 21.04.2028 -
Charlie Crew Leeds United Aktiv 120 / 124 40% 1 21.04.2028 -
Jason Witsel PSV Aktiv 131 / 135 40% 1 15.04.2028 -
Matvey Bardachev Zenit Aktiv 104 / 110 40% 7 04.04.2028 -
Olivier Mambwa Young Boys Aktiv 109 / 128 40% 2 29.03.2028 -
Juan Giménez Rosario Central Aktiv 103 / 116 40% 1 27.03.2028 -
Ezra Mayers West Ham United Aktiv 120 / 135 40% 1 27.03.2028 -
Josh Acheampong Everton Aktiv 152 / 153 40% 6 25.03.2028 -
Thiago Silvero Vélez Aktiv 139 / 132 40% 1 20.03.2028 -
Othniël Raterink Cagliari Aktiv 103 / 123 40% 3 25.01.2028 -
Mao Hosoya Santos Aktiv 134 / 135 67% 1 01.01.2028 Befürworten
Boubacar Fofana Como Aktiv 115 / 115 66% 1 01.01.2028 Befürworten
Matěj Ryneš AS Nancy Aktiv 122 / 123 67% 1 01.01.2028 Befürworten
Victor Hernandez Santa Fe Aktiv 133 / 121 40% 3 30.12.2027 -
Kiani Inge Groningen Aktiv 102 / 117 40% 3 28.12.2027 -
Oscar Steinke Brånby Hammarby Aktiv 111 / 125 40% 4 27.12.2027 -
Amine Boukamir Charleroi Aktiv 94 / 102 40% 3 25.12.2027 -
Gonçalo Oliveira Benfica Aktiv 121 / 113 40% 2 23.12.2027 -
Tiago Freitas Benfica Aktiv 107 / 128 40% 2 19.12.2027 -
Agustín Obregón River Plate Aktiv 101 / 128 40% 2 18.12.2027 -
Nicolas Sport Recife Aktiv 115 / 101 40% 2 17.12.2027 -
Juan Manuel Villalba Tigre Aktiv 120 / 118 40% 2 06.12.2027 -
Hugo Rojas Instituto Aktiv 118 / 123 40% 2 04.12.2027 -
Facundo Balatti Penarol Aktiv 101 / 103 40% 1 30.11.2027 -
Tobias Moi Lillestrom Aktiv 99 / 126 40% 2 16.11.2027 -
Niccolò Fortini Fiorentina Aktiv 138 / 130 40% 1 15.11.2027 -
Matias Siltanen Malmo FF Aktiv 108 / 116 40% 2 03.11.2027 -
Malick Yalcouyé Brighton Aktiv 139 / 127 40% 2 01.11.2027 -
Halam Loboa Sevilla Aktiv 128 / 136 40% 2 12.09.2027 -
José Cavadia Aguilas Doradas Aktiv 93 / 103 40% 1 12.09.2027 -
Eliás Montiel Borussia Dortmund Aktiv 142 / 148 40% 4 10.09.2027 -
Raphael Odogwu Südtirol Aktiv 103 / 125 44% 1 28.06.2027 -
Gady Beyuku Blackburn Rovers Aktiv 125 / 111 40% 1 04.06.2027 -
Johannes Eggestein Orlando City Aktiv 125 / 125 68% 1 01.06.2027 Befürworten
Bence Dárdai VfL Wolfsburg Aktiv 140 / 141 40% 5 28.05.2027 -
Bade Aluko Leicester City Aktiv 109 / 128 40% 3 19.05.2027 -
Enzo Koffi Olympique de Marseille Aktiv 107 / 111 40% 1 11.05.2027 -
Riley Owen Stevenage Aktiv 111 / 115 40% 1 06.05.2027 -
Fabian Merién PSV Aktiv 93 / 120 40% 2 04.05.2027 -
Kyllian Antonio RC Lens Aktiv 118 / 124 40% 2 21.04.2027 -
Wessel Kuhn PSV Aktiv 99 / 108 40% 1 17.04.2027 -
Riyad Idrissi Cagliari Aktiv 131 / 117 40% 4 13.04.2027 -
David Ozoh Derby County Aktiv 128 / 123 40% 2 11.04.2027 -
Jaygo van Ommeren Utrecht Aktiv 111 / 106 40% 2 08.04.2027 -
Sascha Britschgi AC Milan Aktiv 129 / 127 40% 1 08.04.2027 -
Eivind Helland AC Milan Aktiv 127 / 142 40% 1 16.03.2027 -
Nicolò Zaniolo Udinese Aktiv 152 / 146 40% 5 30.12.2026 -
Wesley AS Roma Aktiv 137 / 142 40% 1 30.12.2026 -
Raoul Bellanova Atalanta Aktiv 163 / 152 40% 2 28.12.2026 -
Hans Nicolussi Caviglia Parma Aktiv 135 / 125 40% 1 28.12.2026 -
Unai Gómez Udinese Aktiv 134 / 130 40% 1 27.12.2026 -
Marco Brescianini Fiorentina Aktiv 145 / 153 40% 1 22.12.2026 -
Nicolò Cambiaghi Bologna Aktiv 153 / 140 40% 2 19.12.2026 -
Mikael Egill Ellertsson Genoa Aktiv 139 / 128 40% 1 16.12.2026 -
Fisayo Dele-Bashiru Lazio Aktiv 150 / 143 40% 1 13.12.2026 -
Giovanni Giunti Bari Aktiv 96 / 107 40% 1 09.12.2026 -
Lewis Ferguson Bologna Aktiv 143 / 134 40% 2 05.12.2026 -
Juan Miranda Bologna Aktiv 152 / 153 40% 1 22.11.2026 -
Tommaso Pobega Bologna Aktiv 135 / 125 40% 1 16.11.2026 -
Martín Ojeda Orlando City Aktiv 155 / 115 40% 1 15.11.2026 -
Billy Gilmour Napoli Aktiv 135 / 144 40% 1 11.11.2026 -
Jens Petter Hauge Bodo/Glimt Aktiv 119 / 158 40% 1 11.11.2026 -
Emanuele Valeri Parma Aktiv 134 / 130 40% 1 08.11.2026 -
Andrea Colpani Monza Aktiv 149 / 148 40% 1 05.11.2026 -
Philippe Ndinga Philadelphia Union Aktiv 103 / 117 40% 1 05.11.2026 -
Nikita Stoinov Dinamo Bucharest Aktiv 110 / 112 40% 1 04.11.2026 -
Corrado Riviera Renate Aktiv 117 / 114 40% 1 04.11.2026 -
Adrián Bernabé Parma Aktiv 134 / 146 40% 1 03.11.2026 -
Yunus Akgün Galatasaray Aktiv 150 / 128 40% 2 01.11.2026 -
Xavi Simons Tottenham Aktiv 145 / 167 40% 2 27.10.2026 -
Quinten Timber Crystal Palace Aktiv 144 / 163 40% 1 25.10.2026 -
Wilson Isidor Sunderland Aktiv 133 / 132 40% 1 21.10.2026 -
Cody Gakpo Liverpool Aktiv 146 / 166 40% 1 21.10.2026 -
Yeremy Pino Crystal Palace Aktiv 155 / 151 40% 1 20.10.2026 -
Matt O'Riley Brighton Aktiv 158 / 151 40% 1 19.10.2026 -
Nuno Tavares Lazio Aktiv 149 / 153 40% 2 16.10.2026 -
Marcus Edwards Burnley Aktiv 126 / 127 40% 1 13.10.2026 -
Giacomo Raspadori Atalanta Aktiv 156 / 158 40% 1 12.10.2026 -
Caleb Yirenkyi Coventry City Aktiv 146 / 131 40% 1 08.09.2026 -
Lloyd Kelly Juventus Aktiv 145 / 136 40% 1 07.09.2026 -
Stefano Scognamillo Benevento Aktiv 125 / 131 44% 1 17.08.2026 -